Time;durP1;ratioP1;P1;durP2;ratioP2;P2;SDS_P1;SDS_P2;PMS_P1;PMS_P2;Temp;Humidity;BMP_temperature;BMP_pressure;BME280_temperature;BME280_humidity;BME280_pressure;Samples;Min_cycle;Max_cycle;Signal;HPM_P1;HPM_P2
2021/12/19 00:00:06;;;;;;;9.73;3.13;;;7.90;99.90;;;;;;5042173;28;20053;-83
2021/12/19 00:02:46;;;;;;;5.75;2.95;;;7.90;99.90;;;;;;5036518;28;20477;-83
2021/12/19 00:10:42;;;;;;;4.82;2.00;;;7.80;99.90;;;;;;5045465;28;20479;-83
2021/12/19 00:13:09;;;;;;;3.38;1.80;;;7.80;99.90;;;;;;5042511;28;20049;-83
2021/12/19 00:15:36;;;;;;;5.55;2.05;;;7.90;99.90;;;;;;5041907;28;20103;-82
2021/12/19 00:18:02;;;;;;;5.78;1.63;;;7.90;99.90;;;;;;5047091;28;20061;-84
2021/12/19 00:20:29;;;;;;;8.70;1.80;;;7.80;99.90;;;;;;5049784;28;20044;-82
2021/12/19 00:22:55;;;;;;;6.05;1.73;;;7.80;99.90;;;;;;5037515;28;20056;-83
2021/12/19 00:25:22;;;;;;;7.00;1.83;;;7.80;99.90;;;;;;5057114;28;20490;-83
2021/12/19 00:27:48;;;;;;;6.63;2.45;;;7.80;99.90;;;;;;5048277;28;20136;-83
2021/12/19 00:30:15;;;;;;;11.63;2.42;;;7.80;99.90;;;;;;5037280;28;20046;-81
2021/12/19 00:32:41;;;;;;;5.05;2.05;;;7.80;99.90;;;;;;5044042;28;20045;-81
2021/12/19 00:35:08;;;;;;;3.05;2.08;;;7.80;99.90;;;;;;5038750;28;20040;-81
2021/12/19 00:37:35;;;;;;;6.38;2.75;;;7.80;99.90;;;;;;5040201;28;20048;-82
2021/12/19 00:40:01;;;;;;;9.35;3.95;;;7.70;99.90;;;;;;5037807;28;20056;-82
2021/12/19 00:42:28;;;;;;;8.20;2.45;;;7.70;99.90;;;;;;5049926;28;20045;-83
2021/12/19 00:44:54;;;;;;;9.70;3.40;;;7.70;99.90;;;;;;5035096;28;20037;-82
2021/12/19 00:47:21;;;;;;;6.68;2.95;;;7.70;99.90;;;;;;5047609;28;20053;-81
2021/12/19 00:49:47;;;;;;;9.30;3.50;;;7.70;99.90;;;;;;5047300;28;20060;-83
2021/12/19 00:52:14;;;;;;;6.65;4.05;;;7.60;99.90;;;;;;5040026;28;20052;-82
2021/12/19 00:54:40;;;;;;;17.75;6.57;;;7.70;99.90;;;;;;5041217;28;20048;-83
2021/12/19 00:57:07;;;;;;;11.10;5.25;;;7.90;99.90;;;;;;5047353;28;20047;-82
2021/12/19 00:59:34;;;;;;;12.10;6.22;;;7.90;99.90;;;;;;5043429;28;20052;-82
2021/12/19 01:02:00;;;;;;;18.63;8.77;;;7.90;99.90;;;;;;5047950;28;20546;-82
2021/12/19 01:04:27;;;;;;;13.80;9.43;;;7.90;99.90;;;;;;5038570;28;20057;-83
2021/12/19 01:06:57;;;;;;;21.95;9.15;;;8.00;99.90;;;;;;5040753;28;20058;-83
2021/12/19 01:09:23;;;;;;;18.38;10.13;;;7.90;99.90;;;;;;5044737;28;20049;-83
2021/12/19 01:11:50;;;;;;;22.83;11.25;;;7.90;99.90;;;;;;5043354;28;20049;-82
2021/12/19 01:14:16;;;;;;;20.75;11.15;;;7.80;99.90;;;;;;5054371;28;20490;-82
2021/12/19 01:16:43;;;;;;;19.90;11.07;;;7.90;99.90;;;;;;5049906;28;20502;-81
2021/12/19 01:19:09;;;;;;;23.88;12.75;;;8.00;99.90;;;;;;5045175;28;20393;-82
2021/12/19 01:21:36;;;;;;;23.67;13.43;;;8.00;99.90;;;;;;5038058;28;20495;-82
2021/12/19 01:24:03;;;;;;;19.30;9.82;;;8.10;99.90;;;;;;5036767;28;20404;-81
2021/12/19 01:26:30;;;;;;;26.75;10.45;;;8.10;99.90;;;;;;5033798;28;20492;-81
2021/12/19 01:28:57;;;;;;;30.05;10.23;;;7.90;99.90;;;;;;5032099;28;20132;-82
2021/12/19 01:31:23;;;;;;;19.05;8.18;;;8.00;99.90;;;;;;5040531;28;20060;-83
2021/12/19 01:33:50;;;;;;;10.05;5.53;;;8.00;99.90;;;;;;5048117;28;20056;-82
2021/12/19 01:36:18;;;;;;;7.88;4.82;;;8.00;99.90;;;;;;5037267;28;20053;-81
2021/12/19 01:38:45;;;;;;;6.82;4.05;;;8.10;99.90;;;;;;5053993;28;20090;-81
2021/12/19 01:41:11;;;;;;;11.00;3.78;;;8.10;99.90;;;;;;5058207;28;20056;-81
2021/12/19 01:43:38;;;;;;;7.75;4.20;;;7.80;99.90;;;;;;5066562;28;20052;-81
2021/12/19 01:46:04;;;;;;;10.02;4.90;;;8.00;99.90;;;;;;5037688;28;20049;-82
2021/12/19 01:48:31;;;;;;;10.68;3.80;;;8.00;99.90;;;;;;5040137;28;20048;-81
2021/12/19 01:50:57;;;;;;;11.63;3.38;;;8.00;99.90;;;;;;5047394;28;20060;-81
2021/12/19 01:53:24;;;;;;;6.32;2.97;;;8.00;99.90;;;;;;5041260;28;20049;-81
2021/12/19 01:55:50;;;;;;;7.95;2.78;;;7.90;99.90;;;;;;5033086;28;20051;-82
2021/12/19 01:58:17;;;;;;;8.35;2.28;;;7.90;99.90;;;;;;5045351;28;20057;-81
2021/12/19 02:00:43;;;;;;;11.18;2.15;;;7.70;99.90;;;;;;5038129;28;20060;-81
2021/12/19 02:03:10;;;;;;;2.42;1.40;;;7.70;99.90;;;;;;5042401;28;20432;-81
2021/12/19 02:05:37;;;;;;;1.98;1.10;;;7.70;99.90;;;;;;5043055;28;20053;-80
2021/12/19 02:08:03;;;;;;;3.38;1.42;;;7.70;99.90;;;;;;5036922;28;20045;-81
2021/12/19 02:10:30;;;;;;;0.50;0.50;;;7.70;99.90;;;;;;5036370;28;20052;-82
2021/12/19 02:12:56;;;;;;;4.32;0.93;;;7.70;99.90;;;;;;5032088;28;20088;-81
2021/12/19 02:15:23;;;;;;;4.47;0.50;;;7.70;99.90;;;;;;5040284;28;20045;-81
2021/12/19 02:17:49;;;;;;;1.42;0.43;;;7.50;99.90;;;;;;5039360;28;20431;-81
2021/12/19 02:20:16;;;;;;;3.05;0.63;;;7.60;99.90;;;;;;5046183;28;20484;-82
2021/12/19 02:22:42;;;;;;;3.38;0.70;;;7.40;99.90;;;;;;5042126;28;20105;-82
2021/12/19 02:25:09;;;;;;;2.00;0.80;;;7.40;99.90;;;;;;5043944;28;20421;-81
2021/12/19 02:27:35;;;;;;;3.63;1.33;;;7.20;99.90;;;;;;5044823;28;20137;-81
2021/12/19 02:30:02;;;;;;;1.85;1.02;;;7.40;99.90;;;;;;5043034;28;20056;-81
2021/12/19 02:32:30;;;;;;;2.75;1.20;;;7.40;99.90;;;;;;5048752;28;20049;-80
2021/12/19 02:35:00;;;;;;;7.13;1.77;;;7.50;99.90;;;;;;5038499;28;20052;-81
2021/12/19 02:37:54;;;;;;;6.65;1.65;;;7.40;99.90;;;;;;5043139;28;20060;-80
2021/12/19 02:40:38;;;;;;;2.15;1.08;;;7.40;99.90;;;;;;5049206;28;20046;-81
2021/12/19 02:48:33;;;;;;;2.33;0.80;;;7.50;99.90;;;;;;5043602;28;20049;-81
2021/12/19 02:50:59;;;;;;;1.30;0.77;;;7.40;99.90;;;;;;5041074;28;20067;-81
2021/12/19 02:53:26;;;;;;;1.48;0.82;;;7.50;99.90;;;;;;5048598;28;20045;-80
2021/12/19 02:55:52;;;;;;;6.63;1.75;;;7.50;99.90;;;;;;5040818;28;20049;-80
2021/12/19 02:58:19;;;;;;;4.30;1.92;;;7.50;99.90;;;;;;5049835;28;20048;-80
2021/12/19 03:00:45;;;;;;;5.68;2.55;;;7.50;99.90;;;;;;5038651;28;20472;-80
2021/12/19 03:03:12;;;;;;;6.25;2.15;;;7.50;99.90;;;;;;5050331;28;20053;-80
2021/12/19 03:05:38;;;;;;;11.43;3.25;;;7.50;99.90;;;;;;5040975;28;20045;-80
2021/12/19 03:08:08;;;;;;;3.78;2.72;;;7.60;99.90;;;;;;5050502;28;20060;-79
2021/12/19 03:13:26;;;;;;;7.78;3.72;;;7.60;99.90;;;;;;5006660;28;20471;-80
2021/12/19 03:18:37;;;;;;;6.93;3.10;;;7.60;99.90;;;;;;5040391;28;20089;-81
2021/12/19 03:21:04;;;;;;;6.93;3.55;;;7.50;99.90;;;;;;5041209;28;20054;-80
2021/12/19 03:23:30;;;;;;;8.13;4.30;;;7.60;99.90;;;;;;5051138;28;20056;-80
2021/12/19 03:25:57;;;;;;;7.45;3.25;;;7.50;99.90;;;;;;5051774;28;20055;-81
2021/12/19 03:28:25;;;;;;;12.82;3.72;;;7.50;99.90;;;;;;5047868;28;20057;-80
2021/12/19 03:30:51;;;;;;;9.55;3.50;;;7.70;99.90;;;;;;5038059;28;20128;-78
2021/12/19 03:33:18;;;;;;;3.97;2.67;;;7.60;99.90;;;;;;5082470;28;20071;-81
2021/12/19 03:35:44;;;;;;;8.25;3.33;;;7.50;99.90;;;;;;5039396;28;20053;-80
2021/12/19 03:38:11;;;;;;;6.15;2.65;;;7.50;99.90;;;;;;5048499;28;20049;-80
2021/12/19 03:40:40;;;;;;;6.75;2.92;;;7.60;99.90;;;;;;5044766;28;20053;-81
2021/12/19 03:43:06;;;;;;;5.05;2.83;;;7.50;99.90;;;;;;5050965;28;20101;-80
2021/12/19 03:45:34;;;;;;;9.23;4.53;;;7.40;99.90;;;;;;5050336;28;20052;-81
2021/12/19 03:48:00;;;;;;;10.88;3.47;;;7.50;99.90;;;;;;5046999;28;20059;-80
2021/12/19 03:50:27;;;;;;;19.05;4.65;;;7.60;99.90;;;;;;5046499;28;20476;-80
2021/12/19 03:52:53;;;;;;;6.05;3.75;;;7.60;99.90;;;;;;5034002;28;20056;-81
2021/12/19 03:55:21;;;;;;;10.35;4.15;;;7.40;99.90;;;;;;5047033;28;20047;-80
2021/12/19 03:57:47;;;;;;;15.15;4.07;;;7.50;99.90;;;;;;5040166;28;20053;-80
2021/12/19 04:00:14;;;;;;;15.35;2.60;;;7.30;99.90;;;;;;5047494;28;20049;-80
2021/12/19 04:02:40;;;;;;;11.25;2.83;;;7.30;99.90;;;;;;5041589;28;20045;-80
2021/12/19 04:05:07;;;;;;;9.02;3.20;;;7.20;99.90;;;;;;5046060;28;20044;-80
2021/12/19 04:07:33;;;;;;;10.93;3.83;;;7.30;99.90;;;;;;5042589;28;20045;-80
2021/12/19 04:10:00;;;;;;;9.48;3.25;;;7.20;99.90;;;;;;5045393;28;20059;-80
2021/12/19 04:12:29;;;;;;;7.57;3.10;;;7.30;99.90;;;;;;5040703;28;20065;-80
2021/12/19 04:14:55;;;;;;;10.63;3.58;;;7.20;99.90;;;;;;5049428;28;20427;-80
2021/12/19 04:17:22;;;;;;;15.32;2.83;;;7.30;99.90;;;;;;5041898;28;20052;-79
2021/12/19 04:19:49;;;;;;;13.02;3.90;;;7.30;99.90;;;;;;5047640;28;20053;-80
2021/12/19 04:22:15;;;;;;;12.95;3.35;;;7.30;99.90;;;;;;5040012;28;20049;-80
2021/12/19 04:24:42;;;;;;;10.25;3.67;;;7.30;99.90;;;;;;5050639;28;20045;-80
2021/12/19 04:27:08;;;;;;;12.98;3.47;;;7.20;99.90;;;;;;5042242;28;20238;-80
2021/12/19 04:29:35;;;;;;;14.70;3.72;;;7.30;99.90;;;;;;5051114;28;21074;-80
2021/12/19 04:32:01;;;;;;;16.85;4.40;;;7.40;99.90;;;;;;5040524;28;20492;-80
2021/12/19 04:34:28;;;;;;;13.88;5.28;;;7.40;99.90;;;;;;5038614;28;20071;-81
2021/12/19 04:37:01;;;;;;;10.13;3.92;;;7.30;99.90;;;;;;5052528;28;20050;-81
2021/12/19 04:39:37;;;;;;;9.85;3.97;;;7.30;99.90;;;;;;5054235;28;20068;-80
2021/12/19 04:53:25;;;;;;;12.98;4.82;;;7.50;99.90;;;;;;5053742;28;20738;-80
2021/12/19 04:59:10;;;;;;;13.80;5.35;;;7.40;99.90;;;;;;5040896;28;20052;-79
2021/12/19 05:02:01;;;;;;;11.77;5.15;;;7.40;99.90;;;;;;5037785;28;20045;-80
2021/12/19 05:15:27;;;;;;;19.88;7.00;;;8.10;99.90;;;;;;5047024;28;20076;-80
2021/12/19 05:17:55;;;;;;;13.25;6.07;;;7.70;99.90;;;;;;5043310;28;20049;-80
2021/12/19 05:20:26;;;;;;;19.08;6.63;;;7.50;99.90;;;;;;5051647;28;20583;-80
2021/12/19 05:22:57;;;;;;;19.83;7.07;;;7.40;99.90;;;;;;5058051;28;20052;-80
2021/12/19 05:25:23;;;;;;;28.58;7.45;;;7.50;99.90;;;;;;5036636;28;20058;-80
2021/12/19 05:27:50;;;;;;;20.60;7.68;;;7.40;99.90;;;;;;5048581;28;20049;-80
2021/12/19 05:30:16;;;;;;;15.00;7.30;;;7.40;99.90;;;;;;5044474;28;20136;-80
2021/12/19 05:32:43;;;;;;;16.33;7.95;;;7.60;99.90;;;;;;5042761;28;20041;-80
2021/12/19 05:35:10;;;;;;;20.25;8.27;;;7.50;99.90;;;;;;5046345;28;20049;-80
2021/12/19 05:45:49;;;;;;;27.80;7.95;;;7.30;99.90;;;;;;5047883;28;20483;-80
2021/12/19 05:48:16;;;;;;;25.05;8.88;;;7.30;99.90;;;;;;5049464;28;20400;-80
2021/12/19 05:50:42;;;;;;;27.77;9.00;;;7.30;99.90;;;;;;5045461;28;20061;-80
2021/12/19 05:53:09;;;;;;;36.72;9.32;;;7.30;99.90;;;;;;5054486;28;20049;-80
2021/12/19 05:55:36;;;;;;;23.95;7.55;;;7.30;99.90;;;;;;5050676;28;20049;-81
2021/12/19 05:58:02;;;;;;;26.33;8.05;;;7.20;99.90;;;;;;5044933;28;20494;-80
2021/12/19 06:00:29;;;;;;;16.63;7.45;;;7.20;99.90;;;;;;5050172;28;20507;-79
2021/12/19 06:02:56;;;;;;;18.40;7.80;;;7.40;99.90;;;;;;5041920;28;20099;-80
2021/12/19 06:05:22;;;;;;;25.40;8.73;;;7.30;99.90;;;;;;5043922;28;20045;-80
2021/12/19 06:07:49;;;;;;;17.05;7.40;;;7.30;99.90;;;;;;5048879;28;20068;-80
2021/12/19 06:10:15;;;;;;;16.77;8.02;;;7.30;99.90;;;;;;5048580;28;20488;-80
2021/12/19 06:12:42;;;;;;;17.77;6.30;;;7.30;99.90;;;;;;5050045;28;20045;-80
2021/12/19 06:15:09;;;;;;;14.70;7.32;;;7.30;99.90;;;;;;5052355;28;20060;-80
2021/12/19 06:17:36;;;;;;;22.42;8.65;;;7.30;99.90;;;;;;5047593;28;20435;-80
2021/12/19 06:20:02;;;;;;;26.20;7.65;;;7.30;99.90;;;;;;5046771;28;20053;-80
2021/12/19 06:22:29;;;;;;;21.45;7.53;;;7.50;99.90;;;;;;5042516;28;20402;-80
2021/12/19 06:24:55;;;;;;;29.10;7.40;;;7.60;99.90;;;;;;5041344;28;20645;-79
2021/12/19 06:27:22;;;;;;;21.40;7.72;;;7.60;99.90;;;;;;5044919;28;20059;-80
2021/12/19 06:29:49;;;;;;;22.45;6.43;;;7.50;99.90;;;;;;5046102;28;20068;-80
2021/12/19 06:32:16;;;;;;;16.38;7.30;;;7.30;99.90;;;;;;5047642;28;20084;-80
2021/12/19 06:34:42;;;;;;;14.35;5.75;;;7.20;99.90;;;;;;5046914;28;20404;-80
2021/12/19 06:37:10;;;;;;;18.80;6.05;;;7.30;99.90;;;;;;5051443;28;20049;-79
2021/12/19 06:39:37;;;;;;;12.73;4.70;;;7.20;99.90;;;;;;5050302;28;20052;-80
2021/12/19 06:42:03;;;;;;;19.02;5.22;;;7.40;99.90;;;;;;5042314;28;20103;-80
2021/12/19 06:44:30;;;;;;;15.68;4.43;;;7.20;99.90;;;;;;5049987;28;20582;-80
2021/12/19 06:46:56;;;;;;;14.55;3.50;;;7.10;99.90;;;;;;5045473;28;20060;-80
2021/12/19 06:49:23;;;;;;;10.32;4.32;;;7.10;99.90;;;;;;5050584;28;20049;-80
2021/12/19 06:51:49;;;;;;;5.85;2.42;;;7.10;99.90;;;;;;5036582;28;20056;-80
2021/12/19 06:54:16;;;;;;;5.65;2.65;;;7.10;99.90;;;;;;5052348;28;20050;-80
2021/12/19 06:56:42;;;;;;;7.78;2.45;;;7.20;99.90;;;;;;5035899;28;20064;-80
2021/12/19 06:59:09;;;;;;;7.97;2.33;;;7.40;99.90;;;;;;5046773;28;20041;-79
2021/12/19 07:01:36;;;;;;;10.40;1.98;;;7.30;99.90;;;;;;5047109;28;20045;-79
2021/12/19 07:04:02;;;;;;;6.65;1.95;;;7.50;99.90;;;;;;5047891;28;20107;-80
2021/12/19 07:06:29;;;;;;;13.32;2.38;;;7.40;99.90;;;;;;5043453;28;20045;-80
2021/12/19 07:08:55;;;;;;;22.30;2.53;;;7.50;99.90;;;;;;5052605;28;20397;-80
2021/12/19 07:11:22;;;;;;;4.38;1.80;;;7.50;99.90;;;;;;5050148;28;20320;-80
2021/12/19 07:13:48;;;;;;;13.82;2.42;;;7.50;99.90;;;;;;5051023;28;20840;-80
2021/12/19 07:16:15;;;;;;;8.93;3.17;;;7.50;99.90;;;;;;5048797;28;20041;-80
2021/12/19 07:18:42;;;;;;;9.70;2.88;;;7.40;99.90;;;;;;5048107;28;20061;-81
2021/12/19 07:21:09;;;;;;;13.15;2.53;;;7.40;99.90;;;;;;5043552;28;20484;-81
2021/12/19 07:23:36;;;;;;;10.15;3.15;;;7.50;99.90;;;;;;5046834;28;20061;-81
2021/12/19 07:26:02;;;;;;;10.18;3.28;;;7.40;99.90;;;;;;5048579;28;20083;-81
2021/12/19 07:28:29;;;;;;;13.70;2.83;;;7.40;99.90;;;;;;5037658;28;20056;-81
2021/12/19 07:30:56;;;;;;;13.95;3.42;;;7.30;99.90;;;;;;5044816;28;20049;-82
2021/12/19 07:33:22;;;;;;;14.45;3.05;;;7.40;99.90;;;;;;5048747;28;20618;-81
2021/12/19 07:35:49;;;;;;;15.32;3.13;;;7.40;99.90;;;;;;5052503;28;20049;-80
2021/12/19 07:38:23;;;;;;;11.45;3.38;;;7.40;99.90;;;;;;5040914;28;20050;-80
2021/12/19 07:40:50;;;;;;;21.33;3.35;;;7.40;99.90;;;;;;5037350;28;20115;-80
2021/12/19 07:43:17;;;;;;;11.13;3.45;;;7.30;99.90;;;;;;5042561;28;20508;-80
2021/12/19 07:45:43;;;;;;;10.95;3.10;;;7.20;99.90;;;;;;5043842;28;20059;-80
2021/12/19 07:48:10;;;;;;;17.40;3.72;;;7.30;99.90;;;;;;5043038;28;20049;-80
2021/12/19 07:50:36;;;;;;;19.75;3.90;;;7.30;99.90;;;;;;5044133;28;20041;-81
2021/12/19 07:53:03;;;;;;;13.48;3.53;;;7.30;99.90;;;;;;5045989;28;20052;-81
2021/12/19 07:55:29;;;;;;;12.88;4.03;;;7.30;99.90;;;;;;5078011;28;20051;-80
2021/12/19 07:57:56;;;;;;;23.20;4.60;;;7.40;99.90;;;;;;5044712;28;20045;-80
2021/12/19 08:00:23;;;;;;;13.70;3.92;;;7.40;99.90;;;;;;5038661;28;20061;-80
2021/12/19 08:02:49;;;;;;;17.55;4.85;;;7.30;99.90;;;;;;5039517;28;20461;-80
2021/12/19 08:05:16;;;;;;;11.93;3.70;;;7.30;99.90;;;;;;5041499;28;20420;-80
2021/12/19 08:07:45;;;;;;;20.65;4.20;;;7.40;99.90;;;;;;5040404;28;20408;-80
2021/12/19 08:11:39;;;;;;;21.80;4.18;;;7.50;99.90;;;;;;5036763;28;20071;-80
2021/12/19 08:13:00;;;;;;;26.55;5.25;;;7.50;99.90;;;;;;5036272;28;20045;-80
2021/12/19 08:15:27;;;;;;;13.40;4.00;;;7.40;99.90;;;;;;5033240;28;20077;-80
2021/12/19 08:17:53;;;;;;;22.95;5.13;;;7.50;99.90;;;;;;5033462;28;20045;-81
2021/12/19 08:20:20;;;;;;;16.70;3.85;;;7.60;99.90;;;;;;5032121;28;20056;-80
2021/12/19 08:22:48;;;;;;;10.90;3.33;;;7.50;99.90;;;;;;5036989;28;20048;-81
2021/12/19 08:25:14;;;;;;;20.73;4.60;;;7.60;99.90;;;;;;5030848;28;20057;-80
2021/12/19 08:27:41;;;;;;;10.60;3.75;;;7.50;99.90;;;;;;5034122;28;20068;-80
2021/12/19 08:30:07;;;;;;;12.73;4.93;;;7.50;99.90;;;;;;5035864;28;20057;-80
2021/12/19 08:32:34;;;;;;;15.15;3.47;;;7.50;99.90;;;;;;5034453;28;20041;-81
2021/12/19 08:35:01;;;;;;;13.05;3.60;;;7.60;99.90;;;;;;5031755;28;20057;-80
2021/12/19 08:37:27;;;;;;;13.32;3.92;;;7.60;99.90;;;;;;5037505;28;20045;-80
2021/12/19 08:39:54;;;;;;;12.68;3.42;;;7.60;99.90;;;;;;5048057;28;20046;-81
2021/12/19 08:42:20;;;;;;;11.70;3.22;;;7.70;99.90;;;;;;5034962;28;20048;-80
2021/12/19 08:44:47;;;;;;;17.65;4.53;;;7.60;99.90;;;;;;5032117;28;20059;-81
2021/12/19 08:47:13;;;;;;;20.20;3.92;;;7.60;99.90;;;;;;5044225;28;20042;-81
2021/12/19 08:49:40;;;;;;;16.77;3.67;;;7.50;99.90;;;;;;5033636;28;20061;-81
2021/12/19 08:52:07;;;;;;;14.48;3.70;;;7.50;99.90;;;;;;5034317;28;20045;-81
2021/12/19 08:54:34;;;;;;;11.93;3.95;;;7.40;99.90;;;;;;5036535;28;20056;-81
2021/12/19 08:57:00;;;;;;;13.45;3.88;;;7.50;99.90;;;;;;5027220;28;20053;-81
2021/12/19 08:59:27;;;;;;;27.42;3.70;;;7.50;99.90;;;;;;5028768;28;20053;-81
2021/12/19 09:01:54;;;;;;;17.17;4.38;;;7.50;99.90;;;;;;5038125;28;20049;-81
2021/12/19 09:04:20;;;;;;;13.50;3.22;;;7.60;99.90;;;;;;5046762;28;20493;-81
2021/12/19 09:06:47;;;;;;;10.93;3.25;;;7.70;99.90;;;;;;5027354;28;20055;-81
2021/12/19 09:09:13;;;;;;;22.58;4.03;;;7.70;99.90;;;;;;5044287;28;20052;-81
2021/12/19 09:11:40;;;;;;;13.65;3.72;;;7.50;99.90;;;;;;5037545;28;20065;-81
2021/12/19 09:14:06;;;;;;;15.40;3.88;;;7.40;99.90;;;;;;5034541;28;20048;-80
2021/12/19 09:16:33;;;;;;;18.60;4.28;;;7.60;99.90;;;;;;5042921;28;20052;-81
2021/12/19 09:18:59;;;;;;;20.17;3.45;;;7.70;99.90;;;;;;5040356;28;20056;-81
2021/12/19 09:21:26;;;;;;;9.65;3.13;;;7.70;99.90;;;;;;5044732;28;20053;-82
2021/12/19 09:23:52;;;;;;;14.70;3.67;;;7.70;99.90;;;;;;5042771;28;20061;-81
2021/12/19 09:26:19;;;;;;;19.02;4.20;;;7.60;99.90;;;;;;5042354;28;20060;-81
2021/12/19 09:28:46;;;;;;;15.25;3.60;;;7.60;99.90;;;;;;5041605;28;20488;-81
2021/12/19 09:31:12;;;;;;;9.65;3.70;;;7.70;99.90;;;;;;5044527;28;20049;-81
2021/12/19 09:33:39;;;;;;;21.05;5.05;;;7.60;99.90;;;;;;5033104;28;20210;-81
2021/12/19 09:36:05;;;;;;;12.77;4.30;;;7.50;99.90;;;;;;5039487;28;20052;-80
2021/12/19 09:38:34;;;;;;;22.70;4.72;;;7.50;99.90;;;;;;5036098;28;20060;-79
2021/12/19 09:41:11;;;;;;;18.08;4.32;;;7.50;99.90;;;;;;5032253;28;20135;-80
2021/12/19 09:43:44;;;;;;;24.15;5.82;;;7.60;99.90;;;;;;5039062;28;20119;-80
2021/12/19 09:46:11;;;;;;;22.58;5.28;;;7.50;99.90;;;;;;5042116;28;20052;-81
2021/12/19 09:48:38;;;;;;;13.30;4.82;;;7.50;99.90;;;;;;5037020;28;20540;-81
2021/12/19 09:51:04;;;;;;;15.73;3.92;;;7.50;99.90;;;;;;5039969;28;20543;-81
2021/12/19 09:53:31;;;;;;;20.63;4.65;;;7.60;99.90;;;;;;5034130;28;20507;-81
2021/12/19 09:55:57;;;;;;;21.20;4.60;;;7.60;99.90;;;;;;5045164;28;20397;-81
2021/12/19 09:58:24;;;;;;;16.88;6.10;;;7.70;99.90;;;;;;5039769;28;20401;-80
2021/12/19 10:00:53;;;;;;;19.23;3.97;;;7.70;99.90;;;;;;5046278;28;20488;-80
2021/12/19 10:03:19;;;;;;;19.98;4.70;;;7.80;99.90;;;;;;5036164;28;20113;-81
2021/12/19 10:05:46;;;;;;;20.52;5.15;;;7.70;99.90;;;;;;5037182;28;20804;-81
2021/12/19 10:08:12;;;;;;;12.48;3.75;;;7.50;99.90;;;;;;5027888;28;20429;-81
2021/12/19 10:10:43;;;;;;;22.50;4.32;;;7.60;99.90;;;;;;5028223;28;20574;-81
2021/12/19 10:13:10;;;;;;;24.38;5.63;;;7.70;99.90;;;;;;5038930;28;20485;-81
2021/12/19 10:15:37;;;;;;;26.80;3.72;;;7.60;99.90;;;;;;5032465;28;20111;-81
2021/12/19 10:18:04;;;;;;;11.77;2.90;;;7.50;99.90;;;;;;5041736;28;20425;-81
2021/12/19 10:20:30;;;;;;;11.00;3.70;;;7.60;99.90;;;;;;5039664;28;20041;-81
2021/12/19 10:22:57;;;;;;;17.77;5.07;;;7.60;99.90;;;;;;5043877;28;20052;-81
2021/12/19 10:25:23;;;;;;;15.85;3.60;;;7.60;99.90;;;;;;5045340;28;20049;-81
2021/12/19 10:27:50;;;;;;;22.52;3.20;;;7.70;99.90;;;;;;5040905;28;20143;-81
2021/12/19 10:30:16;;;;;;;10.00;3.13;;;7.70;99.90;;;;;;5038538;28;20064;-81
2021/12/19 10:32:43;;;;;;;12.10;3.15;;;7.80;99.90;;;;;;5033321;28;20144;-81
2021/12/19 10:35:10;;;;;;;8.50;2.90;;;7.90;99.90;;;;;;5042480;28;20480;-81
2021/12/19 10:37:36;;;;;;;16.40;3.08;;;7.90;99.90;;;;;;5033967;28;20404;-80
2021/12/19 10:40:03;;;;;;;14.15;3.13;;;8.00;99.90;;;;;;5035018;28;20057;-81
2021/12/19 10:42:34;;;;;;;10.77;3.40;;;8.10;99.90;;;;;;5047902;28;20065;-81
2021/12/19 10:47:45;;;;;;;21.42;2.58;;;8.00;99.90;;;;;;5039570;28;20048;-81
2021/12/19 10:50:12;;;;;;;9.27;2.50;;;8.10;99.90;;;;;;5033317;28;20045;-81
2021/12/19 10:52:38;;;;;;;14.02;3.15;;;7.90;99.90;;;;;;5033583;28;20068;-81
2021/12/19 10:55:05;;;;;;;15.10;3.10;;;7.90;99.90;;;;;;5033071;28;20064;-81
2021/12/19 10:57:31;;;;;;;19.65;4.53;;;7.90;99.90;;;;;;5034158;28;20041;-81
2021/12/19 10:59:58;;;;;;;17.55;3.17;;;8.00;99.90;;;;;;5041956;28;20065;-81
2021/12/19 11:02:24;;;;;;;17.77;4.40;;;7.90;99.90;;;;;;5045699;28;20053;-80
2021/12/19 11:04:51;;;;;;;31.45;3.78;;;8.10;99.90;;;;;;5037025;28;20057;-81
2021/12/19 11:07:18;;;;;;;23.00;3.83;;;8.00;99.90;;;;;;5035364;28;20052;-79
2021/12/19 11:09:44;;;;;;;14.50;3.70;;;8.10;99.90;;;;;;5038518;28;20053;-80
2021/12/19 11:12:11;;;;;;;13.55;3.70;;;8.00;99.90;;;;;;5041808;28;20064;-80
2021/12/19 11:14:38;;;;;;;18.70;4.45;;;8.10;99.90;;;;;;5028158;28;20057;-80
2021/12/19 11:17:06;;;;;;;16.83;4.05;;;8.20;99.90;;;;;;5030496;28;20508;-80
2021/12/19 11:19:33;;;;;;;16.27;4.10;;;8.10;99.90;;;;;;5031644;28;20076;-80
2021/12/19 11:21:59;;;;;;;18.00;3.47;;;8.20;99.90;;;;;;5034334;28;20045;-80
2021/12/19 11:24:26;;;;;;;23.90;4.88;;;8.20;99.90;;;;;;5033207;28;20057;-80
2021/12/19 11:26:52;;;;;;;16.13;4.20;;;8.20;99.90;;;;;;5032046;28;20057;-80
2021/12/19 11:29:19;;;;;;;18.88;4.55;;;8.20;99.90;;;;;;5033967;28;20049;-81
2021/12/19 11:31:47;;;;;;;19.85;4.00;;;8.30;99.90;;;;;;5045728;28;20051;-80
2021/12/19 11:34:13;;;;;;;21.63;4.85;;;8.40;99.90;;;;;;5035451;28;20049;-82
2021/12/19 11:36:41;;;;;;;24.15;4.75;;;8.30;99.90;;;;;;5038900;28;20049;-81
2021/12/19 11:39:07;;;;;;;15.57;4.72;;;8.20;99.90;;;;;;5038114;28;20406;-81
2021/12/19 11:41:34;;;;;;;21.58;3.85;;;8.20;99.90;;;;;;5035133;28;20503;-81
2021/12/19 11:44:04;;;;;;;14.48;4.20;;;8.20;99.90;;;;;;5030553;28;20049;-81
2021/12/19 11:46:31;;;;;;;18.90;3.63;;;8.20;99.90;;;;;;5031056;28;20053;-81
2021/12/19 11:48:57;;;;;;;30.65;5.30;;;8.10;99.90;;;;;;5030723;28;20077;-81
2021/12/19 11:51:24;;;;;;;22.58;4.45;;;8.10;99.90;;;;;;5031170;28;20615;-82
2021/12/19 11:53:51;;;;;;;17.10;4.53;;;8.10;99.90;;;;;;5033487;28;20057;-82
2021/12/19 11:56:17;;;;;;;14.05;3.92;;;8.20;99.90;;;;;;5035597;28;20068;-80
2021/12/19 11:58:45;;;;;;;17.83;4.38;;;8.00;99.90;;;;;;5031563;28;20045;-81
2021/12/19 12:01:12;;;;;;;20.92;4.43;;;8.00;99.90;;;;;;5032771;28;20056;-81
2021/12/19 12:03:38;;;;;;;8.90;3.88;;;8.30;99.90;;;;;;5033833;28;20053;-80
2021/12/19 12:06:05;;;;;;;12.40;3.05;;;8.60;99.90;;;;;;5034292;28;20045;-82
2021/12/19 12:08:31;;;;;;;11.77;2.80;;;8.70;99.90;;;;;;5032561;28;20060;-81
2021/12/19 12:10:59;;;;;;;19.83;2.85;;;8.70;99.90;;;;;;5029420;28;20063;-80
2021/12/19 12:13:26;;;;;;;14.52;3.15;;;8.70;99.90;;;;;;5033496;28;20098;-80
2021/12/19 12:15:58;;;;;;;13.35;2.88;;;8.60;99.90;;;;;;5038488;28;20068;-81
2021/12/19 12:18:25;;;;;;;25.25;3.72;;;8.40;99.90;;;;;;5034197;28;20048;-80
2021/12/19 12:20:54;;;;;;;13.63;2.60;;;8.40;99.90;;;;;;5034445;28;20053;-81
2021/12/19 12:23:20;;;;;;;8.05;1.92;;;8.20;99.90;;;;;;5035258;28;20116;-81
2021/12/19 12:25:47;;;;;;;10.63;1.92;;;8.30;99.90;;;;;;5030370;28;20659;-81
2021/12/19 12:28:16;;;;;;;10.68;3.28;;;8.30;99.90;;;;;;5032258;28;20068;-82
2021/12/19 12:30:45;;;;;;;5.68;2.10;;;8.20;99.90;;;;;;5035352;28;20525;-82
2021/12/19 12:33:14;;;;;;;5.53;2.17;;;8.30;99.90;;;;;;5033101;28;20051;-82
2021/12/19 12:35:40;;;;;;;19.45;2.47;;;8.20;99.90;;;;;;5034224;28;20132;-82
2021/12/19 12:38:07;;;;;;;9.02;2.35;;;8.10;99.90;;;;;;5040261;28;20055;-82
2021/12/19 12:40:44;;;;;;;12.50;2.53;;;8.20;99.90;;;;;;5031873;28;20055;-82
2021/12/19 12:43:11;;;;;;;13.98;3.28;;;8.20;99.90;;;;;;5034948;28;20060;-82
2021/12/19 12:45:37;;;;;;;16.13;2.88;;;8.30;99.90;;;;;;5036876;28;20053;-83
2021/12/19 12:48:04;;;;;;;13.93;3.58;;;8.20;99.90;;;;;;5044328;28;20052;-82
2021/12/19 12:50:30;;;;;;;12.05;2.50;;;8.00;99.90;;;;;;5042370;28;20064;-80
2021/12/19 12:52:58;;;;;;;14.90;2.92;;;8.10;99.90;;;;;;5032744;28;20049;-82
2021/12/19 12:55:25;;;;;;;16.17;3.10;;;8.20;99.90;;;;;;5033389;28;20045;-82
2021/12/19 12:57:52;;;;;;;6.53;2.60;;;8.30;99.90;;;;;;5030852;28;20041;-82
2021/12/19 13:00:19;;;;;;;19.48;3.08;;;8.30;99.90;;;;;;5045155;28;20461;-82
2021/12/19 13:02:53;;;;;;;17.38;2.60;;;8.30;99.90;;;;;;5031355;28;20085;-82
2021/12/19 13:05:20;;;;;;;10.10;3.05;;;8.40;99.90;;;;;;5038272;28;20057;-82
2021/12/19 13:07:46;;;;;;;10.25;2.75;;;8.40;99.90;;;;;;5039023;28;20056;-82
2021/12/19 13:10:13;;;;;;;11.23;3.55;;;8.40;99.90;;;;;;5035889;28;20049;-82
2021/12/19 13:12:41;;;;;;;9.18;3.13;;;8.40;99.90;;;;;;5040726;28;20057;-81
2021/12/19 13:15:07;;;;;;;19.48;3.28;;;8.20;99.90;;;;;;5033673;28;20049;-80
2021/12/19 13:17:34;;;;;;;9.25;3.38;;;8.40;99.90;;;;;;5043280;28;20045;-81
2021/12/19 13:20:01;;;;;;;14.60;3.95;;;8.40;99.90;;;;;;5031443;28;20044;-81
2021/12/19 13:22:28;;;;;;;16.90;3.08;;;8.40;99.90;;;;;;5044840;28;20499;-81
2021/12/19 13:24:55;;;;;;;9.68;3.83;;;8.40;99.90;;;;;;5042439;28;20231;-82
2021/12/19 13:27:21;;;;;;;15.23;3.47;;;8.40;99.90;;;;;;5027259;28;20066;-81
2021/12/19 13:29:48;;;;;;;10.75;2.60;;;8.40;99.90;;;;;;5028511;28;20061;-81
2021/12/19 13:32:14;;;;;;;20.20;3.90;;;8.40;99.90;;;;;;5038583;28;20049;-81
2021/12/19 13:34:41;;;;;;;9.57;3.03;;;8.60;99.90;;;;;;5043973;28;20068;-81
2021/12/19 13:37:07;;;;;;;23.30;3.75;;;8.40;99.90;;;;;;5034851;28;20049;-81
2021/12/19 13:39:34;;;;;;;16.33;3.03;;;8.40;99.90;;;;;;5041003;28;20041;-80
2021/12/19 13:42:01;;;;;;;17.13;2.90;;;8.50;99.90;;;;;;5041722;28;20173;-81